Terminal Aerodrome Forecast
Issued by NWS Cleveland, OH

Home | Current Version | Previous Version | Graphics & Text | Print | Product List | Glossary On
Versions: 1 2 3 4 5 6 7 8 9 10 11 12 13 14
637
FTUS41 KCLE 241120
TAFTOL
TAF
KTOL 241120Z 2412/2512 10005KT P6SM SKC
      TEMPO 2412/2413 00000KT 5SM BR
     FM251000 00000KT 4SM BR SCT250=

USA.gov is the U.S. government's official web portal to all federal, state and local government web resources and services.